sensor_id;sensor_type;location;lat;lon;timestamp;temperature;humidity
75130;HTU21D;63703;44.716;37.846;2022-12-18T00:01:57;14.58;58.12
75130;HTU21D;63703;44.716;37.846;2022-12-18T00:04:25;14.56;58.34
75130;HTU21D;63703;44.716;37.846;2022-12-18T00:06:52;14.51;58.56
75130;HTU21D;63703;44.716;37.846;2022-12-18T00:09:19;14.44;58.74
75130;HTU21D;63703;44.716;37.846;2022-12-18T00:11:45;14.42;58.80
75130;HTU21D;63703;44.716;37.846;2022-12-18T00:14:12;14.45;58.67
75130;HTU21D;63703;44.716;37.846;2022-12-18T00:16:39;14.48;58.64
75130;HTU21D;63703;44.716;37.846;2022-12-18T00:19:06;14.49;58.63
75130;HTU21D;63703;44.716;37.846;2022-12-18T00:21:33;14.42;58.74
75130;HTU21D;63703;44.716;37.846;2022-12-18T00:24:00;14.40;58.75
75130;HTU21D;63703;44.716;37.846;2022-12-18T00:26:28;14.37;58.70
75130;HTU21D;63703;44.716;37.846;2022-12-18T00:29:00;14.38;58.70
75130;HTU21D;63703;44.716;37.846;2022-12-18T00:31:26;14.36;58.71
75130;HTU21D;63703;44.716;37.846;2022-12-18T00:33:56;14.32;58.80
75130;HTU21D;63703;44.716;37.846;2022-12-18T00:36:28;14.29;58.87
75130;HTU21D;63703;44.716;37.846;2022-12-18T00:38:55;14.34;58.67
75130;HTU21D;63703;44.716;37.846;2022-12-18T00:41:22;14.34;58.71
75130;HTU21D;63703;44.716;37.846;2022-12-18T00:44:08;14.28;58.84
75130;HTU21D;63703;44.716;37.846;2022-12-18T00:46:34;14.25;58.93
75130;HTU21D;63703;44.716;37.846;2022-12-18T00:49:01;14.20;59.06
75130;HTU21D;63703;44.716;37.846;2022-12-18T00:51:27;14.18;58.99
75130;HTU21D;63703;44.716;37.846;2022-12-18T00:53:54;14.13;59.06
75130;HTU21D;63703;44.716;37.846;2022-12-18T00:56:23;14.18;58.90
75130;HTU21D;63703;44.716;37.846;2022-12-18T00:58:49;14.17;58.99
75130;HTU21D;63703;44.716;37.846;2022-12-18T01:01:15;14.19;59.02
75130;HTU21D;63703;44.716;37.846;2022-12-18T01:03:42;14.14;59.11
75130;HTU21D;63703;44.716;37.846;2022-12-18T01:06:10;14.12;59.12
75130;HTU21D;63703;44.716;37.846;2022-12-18T01:08:38;14.12;59.16
75130;HTU21D;63703;44.716;37.846;2022-12-18T01:11:15;14.11;59.06
75130;HTU21D;63703;44.716;37.846;2022-12-18T01:13:42;14.14;59.21
75130;HTU21D;63703;44.716;37.846;2022-12-18T01:16:10;14.11;59.32
75130;HTU21D;63703;44.716;37.846;2022-12-18T01:18:36;14.09;59.39
75130;HTU21D;63703;44.716;37.846;2022-12-18T01:21:09;14.11;59.33
75130;HTU21D;63703;44.716;37.846;2022-12-18T01:23:36;14.13;59.28
75130;HTU21D;63703;44.716;37.846;2022-12-18T01:26:12;14.22;58.79
75130;HTU21D;63703;44.716;37.846;2022-12-18T01:28:39;14.26;58.89
75130;HTU21D;63703;44.716;37.846;2022-12-18T01:31:19;14.34;58.31
75130;HTU21D;63703;44.716;37.846;2022-12-18T01:33:50;14.40;58.41
75130;HTU21D;63703;44.716;37.846;2022-12-18T01:36:28;14.40;58.44
75130;HTU21D;63703;44.716;37.846;2022-12-18T01:38:54;14.33;58.74
75130;HTU21D;63703;44.716;37.846;2022-12-18T01:41:23;14.30;58.80
75130;HTU21D;63703;44.716;37.846;2022-12-18T01:43:54;14.28;58.83
75130;HTU21D;63703;44.716;37.846;2022-12-18T01:46:25;14.29;58.67
75130;HTU21D;63703;44.716;37.846;2022-12-18T01:48:56;14.30;58.55
75130;HTU21D;63703;44.716;37.846;2022-12-18T01:51:24;14.27;58.74
75130;HTU21D;63703;44.716;37.846;2022-12-18T01:53:51;14.20;58.92
75130;HTU21D;63703;44.716;37.846;2022-12-18T01:56:18;14.15;58.95
75130;HTU21D;63703;44.716;37.846;2022-12-18T01:58:56;14.12;59.07
75130;HTU21D;63703;44.716;37.846;2022-12-18T02:01:24;14.10;59.16
75130;HTU21D;63703;44.716;37.846;2022-12-18T02:03:51;14.06;59.28
75130;HTU21D;63703;44.716;37.846;2022-12-18T02:06:35;14.01;59.38
75130;HTU21D;63703;44.716;37.846;2022-12-18T02:09:13;13.97;59.57
75130;HTU21D;63703;44.716;37.846;2022-12-18T02:17:21;13.98;59.89
75130;HTU21D;63703;44.716;37.846;2022-12-18T02:20:13;14.00;59.99
75130;HTU21D;63703;44.716;37.846;2022-12-18T02:28:06;13.91;60.50
75130;HTU21D;63703;44.716;37.846;2022-12-18T02:30:36;13.88;60.64
75130;HTU21D;63703;44.716;37.846;2022-12-18T02:33:05;13.93;60.70
75130;HTU21D;63703;44.716;37.846;2022-12-18T02:35:33;13.97;60.77
75130;HTU21D;63703;44.716;37.846;2022-12-18T02:38:02;13.95;60.89
75130;HTU21D;63703;44.716;37.846;2022-12-18T02:40:31;13.95;60.97
75130;HTU21D;63703;44.716;37.846;2022-12-18T02:43:09;13.94;61.08
75130;HTU21D;63703;44.716;37.846;2022-12-18T02:45:46;13.93;61.15
75130;HTU21D;63703;44.716;37.846;2022-12-18T02:48:13;13.91;61.26
75130;HTU21D;63703;44.716;37.846;2022-12-18T02:50:48;13.91;61.38
75130;HTU21D;63703;44.716;37.846;2022-12-18T02:53:27;13.85;61.47
75130;HTU21D;63703;44.716;37.846;2022-12-18T02:56:09;13.88;61.70
75130;HTU21D;63703;44.716;37.846;2022-12-18T02:58:59;13.90;61.81
75130;HTU21D;63703;44.716;37.846;2022-12-18T03:01:52;13.93;61.94
75130;HTU21D;63703;44.716;37.846;2022-12-18T03:04:26;13.97;62.08
75130;HTU21D;63703;44.716;37.846;2022-12-18T03:06:57;13.95;62.18
75130;HTU21D;63703;44.716;37.846;2022-12-18T03:09:34;13.97;62.42
75130;HTU21D;63703;44.716;37.846;2022-12-18T03:12:30;14.01;62.52
75130;HTU21D;63703;44.716;37.846;2022-12-18T03:15:05;13.98;62.68
75130;HTU21D;63703;44.716;37.846;2022-12-18T03:17:36;13.97;62.72
75130;HTU21D;63703;44.716;37.846;2022-12-18T03:20:10;13.95;62.82
75130;HTU21D;63703;44.716;37.846;2022-12-18T03:22:38;13.93;62.88
75130;HTU21D;63703;44.716;37.846;2022-12-18T03:25:10;13.88;62.99
75130;HTU21D;63703;44.716;37.846;2022-12-18T03:27:40;13.84;63.15
75130;HTU21D;63703;44.716;37.846;2022-12-18T03:30:12;13.85;63.34
75130;HTU21D;63703;44.716;37.846;2022-12-18T03:32:53;13.84;63.58
75130;HTU21D;63703;44.716;37.846;2022-12-18T03:35:26;13.80;63.58
75130;HTU21D;63703;44.716;37.846;2022-12-18T03:37:56;13.76;63.73
75130;HTU21D;63703;44.716;37.846;2022-12-18T03:41:14;13.68;63.88
75130;HTU21D;63703;44.716;37.846;2022-12-18T03:44:07;13.70;64.16
75130;HTU21D;63703;44.716;37.846;2022-12-18T03:46:11;13.71;64.64
75130;HTU21D;63703;44.716;37.846;2022-12-18T03:48:44;13.66;64.40
75130;HTU21D;63703;44.716;37.846;2022-12-18T03:51:28;13.62;64.70
75130;HTU21D;63703;44.716;37.846;2022-12-18T03:54:02;13.61;64.76
75130;HTU21D;63703;44.716;37.846;2022-12-18T03:56:38;13.61;64.76
75130;HTU21D;63703;44.716;37.846;2022-12-18T03:59:08;13.64;64.79
75130;HTU21D;63703;44.716;37.846;2022-12-18T04:01:45;13.67;64.82
75130;HTU21D;63703;44.716;37.846;2022-12-18T04:04:14;13.70;64.76
75130;HTU21D;63703;44.716;37.846;2022-12-18T04:06:43;13.68;64.74
75130;HTU21D;63703;44.716;37.846;2022-12-18T04:09:11;13.73;64.79
75130;HTU21D;63703;44.716;37.846;2022-12-18T04:11:42;13.77;64.82
75130;HTU21D;63703;44.716;37.846;2022-12-18T04:14:13;13.81;64.76
75130;HTU21D;63703;44.716;37.846;2022-12-18T04:16:40;13.79;64.74
75130;HTU21D;63703;44.716;37.846;2022-12-18T04:19:09;13.83;64.87
75130;HTU21D;63703;44.716;37.846;2022-12-18T04:21:39;13.86;64.87
75130;HTU21D;63703;44.716;37.846;2022-12-18T04:24:06;13.85;64.91
75130;HTU21D;63703;44.716;37.846;2022-12-18T04:26:34;13.85;64.96
75130;HTU21D;63703;44.716;37.846;2022-12-18T04:29:23;13.88;64.97
75130;HTU21D;63703;44.716;37.846;2022-12-18T04:31:49;13.90;65.00
75130;HTU21D;63703;44.716;37.846;2022-12-18T04:34:15;13.90;65.00
75130;HTU21D;63703;44.716;37.846;2022-12-18T04:36:48;13.91;64.97
75130;HTU21D;63703;44.716;37.846;2022-12-18T04:39:17;13.93;64.95
75130;HTU21D;63703;44.716;37.846;2022-12-18T04:41:44;13.93;64.95
75130;HTU21D;63703;44.716;37.846;2022-12-18T04:44:12;13.97;64.92
75130;HTU21D;63703;44.716;37.846;2022-12-18T04:46:38;13.97;64.94
75130;HTU21D;63703;44.716;37.846;2022-12-18T04:49:03;13.94;64.99
75130;HTU21D;63703;44.716;37.846;2022-12-18T04:51:29;13.94;65.01
75130;HTU21D;63703;44.716;37.846;2022-12-18T04:53:55;13.96;65.05
75130;HTU21D;63703;44.716;37.846;2022-12-18T04:56:22;13.97;65.13
75130;HTU21D;63703;44.716;37.846;2022-12-18T04:58:48;13.97;65.23
75130;HTU21D;63703;44.716;37.846;2022-12-18T05:01:15;13.95;65.32
75130;HTU21D;63703;44.716;37.846;2022-12-18T05:03:41;13.93;65.39
75130;HTU21D;63703;44.716;37.846;2022-12-18T05:06:08;13.92;65.48
75130;HTU21D;63703;44.716;37.846;2022-12-18T05:08:34;13.92;65.56
75130;HTU21D;63703;44.716;37.846;2022-12-18T05:11:06;13.98;65.86
75130;HTU21D;63703;44.716;37.846;2022-12-18T05:13:33;13.98;65.85
75130;HTU21D;63703;44.716;37.846;2022-12-18T05:16:00;14.01;66.00
75130;HTU21D;63703;44.716;37.846;2022-12-18T05:18:26;14.04;66.08
75130;HTU21D;63703;44.716;37.846;2022-12-18T05:20:53;14.06;66.22
75130;HTU21D;63703;44.716;37.846;2022-12-18T05:23:20;14.08;66.30
75130;HTU21D;63703;44.716;37.846;2022-12-18T05:25:59;14.12;66.51
75130;HTU21D;63703;44.716;37.846;2022-12-18T05:28:27;14.14;66.40
75130;HTU21D;63703;44.716;37.846;2022-12-18T05:30:56;14.17;66.52
75130;HTU21D;63703;44.716;37.846;2022-12-18T05:33:24;14.18;66.59
75130;HTU21D;63703;44.716;37.846;2022-12-18T05:35:52;14.18;66.63
75130;HTU21D;63703;44.716;37.846;2022-12-18T05:38:19;14.20;66.73
75130;HTU21D;63703;44.716;37.846;2022-12-18T05:40:45;14.20;66.79
75130;HTU21D;63703;44.716;37.846;2022-12-18T05:43:11;14.24;66.93
75130;HTU21D;63703;44.716;37.846;2022-12-18T05:45:40;14.24;67.06
75130;HTU21D;63703;44.716;37.846;2022-12-18T05:48:07;14.26;67.17
75130;HTU21D;63703;44.716;37.846;2022-12-18T05:50:37;14.29;67.29
75130;HTU21D;63703;44.716;37.846;2022-12-18T05:53:04;14.30;67.30
75130;HTU21D;63703;44.716;37.846;2022-12-18T05:55:34;14.32;67.37
75130;HTU21D;63703;44.716;37.846;2022-12-18T05:58:02;14.35;67.46
75130;HTU21D;63703;44.716;37.846;2022-12-18T06:00:28;14.36;67.53
75130;HTU21D;63703;44.716;37.846;2022-12-18T06:02:54;14.35;67.55
75130;HTU21D;63703;44.716;37.846;2022-12-18T06:05:20;14.42;67.65
75130;HTU21D;63703;44.716;37.846;2022-12-18T06:07:46;14.44;67.97
75130;HTU21D;63703;44.716;37.846;2022-12-18T06:10:12;14.47;68.37
75130;HTU21D;63703;44.716;37.846;2022-12-18T06:12:38;14.49;68.41
75130;HTU21D;63703;44.716;37.846;2022-12-18T06:15:04;14.53;68.45
75130;HTU21D;63703;44.716;37.846;2022-12-18T06:17:31;14.58;68.66
75130;HTU21D;63703;44.716;37.846;2022-12-18T06:19:57;14.58;68.76
75130;HTU21D;63703;44.716;37.846;2022-12-18T06:22:23;14.64;69.05
75130;HTU21D;63703;44.716;37.846;2022-12-18T06:24:49;14.63;69.14
75130;HTU21D;63703;44.716;37.846;2022-12-18T06:27:15;14.65;69.16
75130;HTU21D;63703;44.716;37.846;2022-12-18T06:29:42;14.72;69.35
75130;HTU21D;63703;44.716;37.846;2022-12-18T06:32:08;14.73;69.70
75130;HTU21D;63703;44.716;37.846;2022-12-18T06:34:36;14.73;69.81
75130;HTU21D;63703;44.716;37.846;2022-12-18T06:37:02;14.77;69.87
75130;HTU21D;63703;44.716;37.846;2022-12-18T06:39:28;14.78;70.01
75130;HTU21D;63703;44.716;37.846;2022-12-18T06:41:54;14.78;70.44
75130;HTU21D;63703;44.716;37.846;2022-12-18T06:44:20;14.74;70.74
75130;HTU21D;63703;44.716;37.846;2022-12-18T06:46:46;14.73;71.04
75130;HTU21D;63703;44.716;37.846;2022-12-18T06:49:12;14.72;71.32
75130;HTU21D;63703;44.716;37.846;2022-12-18T06:51:38;14.73;71.48
75130;HTU21D;63703;44.716;37.846;2022-12-18T06:54:04;14.72;71.74
75130;HTU21D;63703;44.716;37.846;2022-12-18T06:56:30;14.71;71.86
75130;HTU21D;63703;44.716;37.846;2022-12-18T06:58:55;14.72;72.16
75130;HTU21D;63703;44.716;37.846;2022-12-18T07:01:22;14.72;72.39
75130;HTU21D;63703;44.716;37.846;2022-12-18T07:03:53;14.77;72.72
75130;HTU21D;63703;44.716;37.846;2022-12-18T07:06:20;14.82;72.78
75130;HTU21D;63703;44.716;37.846;2022-12-18T07:08:47;14.87;72.99
75130;HTU21D;63703;44.716;37.846;2022-12-18T07:11:14;14.91;73.09
75130;HTU21D;63703;44.716;37.846;2022-12-18T07:13:40;14.95;73.26
75130;HTU21D;63703;44.716;37.846;2022-12-18T07:16:19;15.01;73.83
75130;HTU21D;63703;44.716;37.846;2022-12-18T07:18:46;15.02;73.47
75130;HTU21D;63703;44.716;37.846;2022-12-18T07:21:17;15.03;73.64
75130;HTU21D;63703;44.716;37.846;2022-12-18T07:23:43;15.08;73.61
75130;HTU21D;63703;44.716;37.846;2022-12-18T07:26:13;15.11;73.83
75130;HTU21D;63703;44.716;37.846;2022-12-18T07:28:41;15.11;73.90
75130;HTU21D;63703;44.716;37.846;2022-12-18T07:31:09;15.13;73.90
75130;HTU21D;63703;44.716;37.846;2022-12-18T07:33:35;15.15;73.90
75130;HTU21D;63703;44.716;37.846;2022-12-18T07:36:02;15.10;74.09
75130;HTU21D;63703;44.716;37.846;2022-12-18T07:38:29;15.02;74.45
75130;HTU21D;63703;44.716;37.846;2022-12-18T07:41:07;14.97;74.90
75130;HTU21D;63703;44.716;37.846;2022-12-18T07:43:34;14.92;74.57
75130;HTU21D;63703;44.716;37.846;2022-12-18T07:46:00;14.92;74.61
75130;HTU21D;63703;44.716;37.846;2022-12-18T07:48:26;14.86;74.73
75130;HTU21D;63703;44.716;37.846;2022-12-18T07:50:53;14.83;74.86
75130;HTU21D;63703;44.716;37.846;2022-12-18T07:53:18;14.82;75.03
75130;HTU21D;63703;44.716;37.846;2022-12-18T07:55:44;14.78;75.11
75130;HTU21D;63703;44.716;37.846;2022-12-18T07:58:10;14.78;75.25
75130;HTU21D;63703;44.716;37.846;2022-12-18T08:00:36;14.75;75.28
75130;HTU21D;63703;44.716;37.846;2022-12-18T08:03:02;14.78;75.44
75130;HTU21D;63703;44.716;37.846;2022-12-18T08:05:28;14.74;75.85
75130;HTU21D;63703;44.716;37.846;2022-12-18T08:07:54;14.71;76.18
75130;HTU21D;63703;44.716;37.846;2022-12-18T08:10:20;14.66;76.66
75130;HTU21D;63703;44.716;37.846;2022-12-18T08:12:51;14.58;77.02
75130;HTU21D;63703;44.716;37.846;2022-12-18T08:15:17;14.52;77.08
75130;HTU21D;63703;44.716;37.846;2022-12-18T08:17:43;14.49;77.27
75130;HTU21D;63703;44.716;37.846;2022-12-18T08:20:09;14.43;77.47
75130;HTU21D;63703;44.716;37.846;2022-12-18T08:22:38;14.41;77.69
75130;HTU21D;63703;44.716;37.846;2022-12-18T08:25:05;14.38;77.63
75130;HTU21D;63703;44.716;37.846;2022-12-18T08:27:31;14.37;77.72
75130;HTU21D;63703;44.716;37.846;2022-12-18T08:29:57;14.39;77.88
75130;HTU21D;63703;44.716;37.846;2022-12-18T08:32:24;14.37;78.23
75130;HTU21D;63703;44.716;37.846;2022-12-18T08:34:50;14.34;78.25
75130;HTU21D;63703;44.716;37.846;2022-12-18T08:37:16;14.35;78.33
75130;HTU21D;63703;44.716;37.846;2022-12-18T08:39:42;14.36;78.29
75130;HTU21D;63703;44.716;37.846;2022-12-18T08:42:08;14.38;78.49
75130;HTU21D;63703;44.716;37.846;2022-12-18T08:44:53;14.39;78.42
75130;HTU21D;63703;44.716;37.846;2022-12-18T08:47:19;14.44;78.47
75130;HTU21D;63703;44.716;37.846;2022-12-18T08:49:45;14.49;78.62
75130;HTU21D;63703;44.716;37.846;2022-12-18T08:52:16;14.48;79.09
75130;HTU21D;63703;44.716;37.846;2022-12-18T08:54:42;14.45;79.32
75130;HTU21D;63703;44.716;37.846;2022-12-18T08:57:08;14.44;79.43
75130;HTU21D;63703;44.716;37.846;2022-12-18T08:59:34;14.39;79.60
75130;HTU21D;63703;44.716;37.846;2022-12-18T09:02:00;14.35;79.65
75130;HTU21D;63703;44.716;37.846;2022-12-18T09:04:26;14.32;79.67
75130;HTU21D;63703;44.716;37.846;2022-12-18T09:06:55;14.28;79.82
75130;HTU21D;63703;44.716;37.846;2022-12-18T09:09:21;14.29;79.86
75130;HTU21D;63703;44.716;37.846;2022-12-18T09:11:47;14.26;80.13
75130;HTU21D;63703;44.716;37.846;2022-12-18T09:14:13;14.21;80.31
75130;HTU21D;63703;44.716;37.846;2022-12-18T09:16:39;14.18;80.40
75130;HTU21D;63703;44.716;37.846;2022-12-18T09:19:05;14.19;80.48
75130;HTU21D;63703;44.716;37.846;2022-12-18T09:21:34;14.14;80.62
75130;HTU21D;63703;44.716;37.846;2022-12-18T09:24:05;14.09;80.58
75130;HTU21D;63703;44.716;37.846;2022-12-18T09:26:31;14.09;80.81
75130;HTU21D;63703;44.716;37.846;2022-12-18T09:28:57;14.07;81.04
75130;HTU21D;63703;44.716;37.846;2022-12-18T09:31:24;14.00;81.19
75130;HTU21D;63703;44.716;37.846;2022-12-18T09:33:50;13.99;81.14
75130;HTU21D;63703;44.716;37.846;2022-12-18T09:36:17;14.01;81.27
75130;HTU21D;63703;44.716;37.846;2022-12-18T09:38:44;14.04;81.30
75130;HTU21D;63703;44.716;37.846;2022-12-18T09:43:58;14.12;81.21
75130;HTU21D;63703;44.716;37.846;2022-12-18T09:46:31;14.19;81.13
75130;HTU21D;63703;44.716;37.846;2022-12-18T09:49:05;14.29;80.77
75130;HTU21D;63703;44.716;37.846;2022-12-18T09:51:39;14.42;80.44
75130;HTU21D;63703;44.716;37.846;2022-12-18T09:54:12;14.56;80.12
75130;HTU21D;63703;44.716;37.846;2022-12-18T09:56:42;14.63;79.89
75130;HTU21D;63703;44.716;37.846;2022-12-18T09:59:30;14.69;79.78
75130;HTU21D;63703;44.716;37.846;2022-12-18T10:01:56;14.69;79.50
75130;HTU21D;63703;44.716;37.846;2022-12-18T10:04:23;14.73;79.53
75130;HTU21D;63703;44.716;37.846;2022-12-18T10:06:58;14.78;79.43
75130;HTU21D;63703;44.716;37.846;2022-12-18T10:09:53;14.75;79.49
75130;HTU21D;63703;44.716;37.846;2022-12-18T10:21:10;14.50;79.85
75130;HTU21D;63703;44.716;37.846;2022-12-18T10:26:23;14.32;80.14
75130;HTU21D;63703;44.716;37.846;2022-12-18T10:28:51;14.26;80.46
75130;HTU21D;63703;44.716;37.846;2022-12-18T10:31:20;14.21;80.71
75130;HTU21D;63703;44.716;37.846;2022-12-18T10:33:47;14.15;80.88
75130;HTU21D;63703;44.716;37.846;2022-12-18T10:36:13;14.09;81.05
75130;HTU21D;63703;44.716;37.846;2022-12-18T10:38:40;14.06;81.30
75130;HTU21D;63703;44.716;37.846;2022-12-18T10:46:45;13.96;82.03
75130;HTU21D;63703;44.716;37.846;2022-12-18T10:49:26;13.96;83.06
75130;HTU21D;63703;44.716;37.846;2022-12-18T10:52:11;13.92;82.51
75130;HTU21D;63703;44.716;37.846;2022-12-18T10:54:39;13.94;82.13
75130;HTU21D;63703;44.716;37.846;2022-12-18T10:59:58;13.95;82.49
75130;HTU21D;63703;44.716;37.846;2022-12-18T11:02:28;13.92;82.87
75130;HTU21D;63703;44.716;37.846;2022-12-18T11:04:58;13.83;83.00
75130;HTU21D;63703;44.716;37.846;2022-12-18T11:07:24;13.84;83.13
75130;HTU21D;63703;44.716;37.846;2022-12-18T11:10:02;13.82;83.65
75130;HTU21D;63703;44.716;37.846;2022-12-18T11:12:29;13.79;83.26
75130;HTU21D;63703;44.716;37.846;2022-12-18T11:14:58;13.82;83.74
75130;HTU21D;63703;44.716;37.846;2022-12-18T11:17:29;13.82;85.30
75130;HTU21D;63703;44.716;37.846;2022-12-18T11:20:01;13.69;84.16
75130;HTU21D;63703;44.716;37.846;2022-12-18T11:22:33;13.65;84.29
75130;HTU21D;63703;44.716;37.846;2022-12-18T11:27:32;13.65;84.40
75130;HTU21D;63703;44.716;37.846;2022-12-18T11:30:24;13.68;84.82
75130;HTU21D;63703;44.716;37.846;2022-12-18T11:33:13;13.69;84.61
75130;HTU21D;63703;44.716;37.846;2022-12-18T11:35:47;13.70;84.23
75130;HTU21D;63703;44.716;37.846;2022-12-18T11:38:24;13.74;84.57
75130;HTU21D;63703;44.716;37.846;2022-12-18T11:40:58;13.73;84.57
75130;HTU21D;63703;44.716;37.846;2022-12-18T11:43:33;13.71;84.52
75130;HTU21D;63703;44.716;37.846;2022-12-18T11:46:36;13.73;84.75
75130;HTU21D;63703;44.716;37.846;2022-12-18T11:49:06;13.70;84.37
75130;HTU21D;63703;44.716;37.846;2022-12-18T11:51:37;13.69;84.44
75130;HTU21D;63703;44.716;37.846;2022-12-18T11:54:13;13.70;84.64
75130;HTU21D;63703;44.716;37.846;2022-12-18T11:56:48;13.70;84.68
75130;HTU21D;63703;44.716;37.846;2022-12-18T12:14:06;13.39;85.04
75130;HTU21D;63703;44.716;37.846;2022-12-18T12:16:29;13.17;84.84
75130;HTU21D;63703;44.716;37.846;2022-12-18T12:19:10;13.03;84.79
75130;HTU21D;63703;44.716;37.846;2022-12-18T12:21:43;12.91;84.81
75130;HTU21D;63703;44.716;37.846;2022-12-18T12:32:26;12.49;84.94
75130;HTU21D;63703;44.716;37.846;2022-12-18T12:35:24;12.44;85.03
75130;HTU21D;63703;44.716;37.846;2022-12-18T12:38:12;12.42;84.97
75130;HTU21D;63703;44.716;37.846;2022-12-18T12:40:45;12.36;84.82
75130;HTU21D;63703;44.716;37.846;2022-12-18T12:51:23;12.13;84.78
75130;HTU21D;63703;44.716;37.846;2022-12-18T12:53:50;12.08;84.74
75130;HTU21D;63703;44.716;37.846;2022-12-18T12:56:20;12.06;84.72
75130;HTU21D;63703;44.716;37.846;2022-12-18T13:04:36;11.87;84.74
75130;HTU21D;63703;44.716;37.846;2022-12-18T13:07:32;11.79;84.64
75130;HTU21D;63703;44.716;37.846;2022-12-18T13:13:06;11.70;84.68
75130;HTU21D;63703;44.716;37.846;2022-12-18T13:15:45;11.67;84.64
75130;HTU21D;63703;44.716;37.846;2022-12-18T13:25:50;11.40;84.46
75130;HTU21D;63703;44.716;37.846;2022-12-18T13:31:13;11.19;84.45
75130;HTU21D;63703;44.716;37.846;2022-12-18T13:33:45;11.11;84.48
75130;HTU21D;63703;44.716;37.846;2022-12-18T13:36:30;11.01;84.48
75130;HTU21D;63703;44.716;37.846;2022-12-18T13:39:32;10.93;84.70
75130;HTU21D;63703;44.716;37.846;2022-12-18T13:44:48;10.73;84.65
75130;HTU21D;63703;44.716;37.846;2022-12-18T13:47:34;10.66;84.88
75130;HTU21D;63703;44.716;37.846;2022-12-18T13:50:25;10.59;84.88
75130;HTU21D;63703;44.716;37.846;2022-12-18T13:52:52;10.51;84.80
75130;HTU21D;63703;44.716;37.846;2022-12-18T13:55:19;10.46;84.81
75130;HTU21D;63703;44.716;37.846;2022-12-18T13:57:47;10.44;84.81
75130;HTU21D;63703;44.716;37.846;2022-12-18T14:00:30;10.49;84.90
75130;HTU21D;63703;44.716;37.846;2022-12-18T14:02:57;10.50;84.74
75130;HTU21D;63703;44.716;37.846;2022-12-18T14:07:54;10.41;84.72
75130;HTU21D;63703;44.716;37.846;2022-12-18T14:10:21;10.35;84.81
75130;HTU21D;63703;44.716;37.846;2022-12-18T14:12:49;10.26;84.78
75130;HTU21D;63703;44.716;37.846;2022-12-18T14:15:39;10.18;84.86
75130;HTU21D;63703;44.716;37.846;2022-12-18T14:18:33;10.13;84.93
75130;HTU21D;63703;44.716;37.846;2022-12-18T14:21:03;10.08;84.79
75130;HTU21D;63703;44.716;37.846;2022-12-18T14:23:41;10.06;84.84
75130;HTU21D;63703;44.716;37.846;2022-12-18T14:26:26;9.99;84.79
75130;HTU21D;63703;44.716;37.846;2022-12-18T14:29:16;9.92;84.72
75130;HTU21D;63703;44.716;37.846;2022-12-18T14:31:43;9.90;84.70
75130;HTU21D;63703;44.716;37.846;2022-12-18T14:34:16;9.90;84.70
75130;HTU21D;63703;44.716;37.846;2022-12-18T14:36:52;9.89;84.71
75130;HTU21D;63703;44.716;37.846;2022-12-18T14:39:18;9.84;84.58
75130;HTU21D;63703;44.716;37.846;2022-12-18T14:41:44;9.82;84.52
75130;HTU21D;63703;44.716;37.846;2022-12-18T14:44:12;9.80;84.45
75130;HTU21D;63703;44.716;37.846;2022-12-18T14:46:40;9.77;84.40
75130;HTU21D;63703;44.716;37.846;2022-12-18T14:49:33;9.75;84.40
75130;HTU21D;63703;44.716;37.846;2022-12-18T14:52:05;9.71;84.32
75130;HTU21D;63703;44.716;37.846;2022-12-18T14:54:32;9.70;84.24
75130;HTU21D;63703;44.716;37.846;2022-12-18T14:57:02;9.71;84.20
75130;HTU21D;63703;44.716;37.846;2022-12-18T14:59:29;9.71;84.11
75130;HTU21D;63703;44.716;37.846;2022-12-18T15:02:21;9.70;84.13
75130;HTU21D;63703;44.716;37.846;2022-12-18T15:05:00;9.67;84.01
75130;HTU21D;63703;44.716;37.846;2022-12-18T15:07:27;9.64;83.95
75130;HTU21D;63703;44.716;37.846;2022-12-18T15:10:20;9.63;84.04
75130;HTU21D;63703;44.716;37.846;2022-12-18T15:18:04;9.45;83.65
75130;HTU21D;63703;44.716;37.846;2022-12-18T15:20:50;9.35;83.65
75130;HTU21D;63703;44.716;37.846;2022-12-18T15:25:46;9.18;83.59
75130;HTU21D;63703;44.716;37.846;2022-12-18T15:28:21;9.14;83.49
75130;HTU21D;63703;44.716;37.846;2022-12-18T15:34:28;8.92;83.37
75130;HTU21D;63703;44.716;37.846;2022-12-18T15:36:30;8.87;83.32
75130;HTU21D;63703;44.716;37.846;2022-12-18T15:38:56;8.86;83.24
75130;HTU21D;63703;44.716;37.846;2022-12-18T15:41:26;8.89;83.29
75130;HTU21D;63703;44.716;37.846;2022-12-18T15:43:52;8.95;83.49
75130;HTU21D;63703;44.716;37.846;2022-12-18T15:46:20;9.06;83.58
75130;HTU21D;63703;44.716;37.846;2022-12-18T15:48:49;9.11;83.76
75130;HTU21D;63703;44.716;37.846;2022-12-18T15:51:24;9.30;83.60
75130;HTU21D;63703;44.716;37.846;2022-12-18T15:53:54;9.35;83.43
75130;HTU21D;63703;44.716;37.846;2022-12-18T15:56:20;9.38;83.36
75130;HTU21D;63703;44.716;37.846;2022-12-18T15:59:14;9.45;82.99
75130;HTU21D;63703;44.716;37.846;2022-12-18T16:01:41;9.48;82.89
75130;HTU21D;63703;44.716;37.846;2022-12-18T16:04:12;9.54;82.13
75130;HTU21D;63703;44.716;37.846;2022-12-18T16:06:39;9.60;81.77
75130;HTU21D;63703;44.716;37.846;2022-12-18T16:09:05;9.65;81.54
75130;HTU21D;63703;44.716;37.846;2022-12-18T16:11:33;9.60;81.58
75130;HTU21D;63703;44.716;37.846;2022-12-18T16:14:22;9.64;81.14
75130;HTU21D;63703;44.716;37.846;2022-12-18T16:16:50;9.63;81.36
75130;HTU21D;63703;44.716;37.846;2022-12-18T16:19:17;9.66;81.30
75130;HTU21D;63703;44.716;37.846;2022-12-18T16:21:43;9.71;81.20
75130;HTU21D;63703;44.716;37.846;2022-12-18T16:24:16;9.76;80.89
75130;HTU21D;63703;44.716;37.846;2022-12-18T16:26:43;9.74;80.88
75130;HTU21D;63703;44.716;37.846;2022-12-18T16:29:10;9.72;80.78
75130;HTU21D;63703;44.716;37.846;2022-12-18T16:31:37;9.75;80.66
75130;HTU21D;63703;44.716;37.846;2022-12-18T16:36:35;9.72;80.59
75130;HTU21D;63703;44.716;37.846;2022-12-18T16:39:04;9.68;80.46
75130;HTU21D;63703;44.716;37.846;2022-12-18T16:41:30;9.64;80.30
75130;HTU21D;63703;44.716;37.846;2022-12-18T16:44:01;9.56;80.29
75130;HTU21D;63703;44.716;37.846;2022-12-18T16:46:27;9.50;80.16
75130;HTU21D;63703;44.716;37.846;2022-12-18T16:48:52;9.47;79.76
75130;HTU21D;63703;44.716;37.846;2022-12-18T16:51:18;9.37;79.82
75130;HTU21D;63703;44.716;37.846;2022-12-18T16:53:44;9.25;79.72
75130;HTU21D;63703;44.716;37.846;2022-12-18T16:56:10;9.16;78.98
75130;HTU21D;63703;44.716;37.846;2022-12-18T16:58:36;9.03;78.77
75130;HTU21D;63703;44.716;37.846;2022-12-18T17:01:09;8.96;78.73
75130;HTU21D;63703;44.716;37.846;2022-12-18T17:03:36;8.88;78.73
75130;HTU21D;63703;44.716;37.846;2022-12-18T17:06:03;8.86;78.78
75130;HTU21D;63703;44.716;37.846;2022-12-18T17:08:30;8.79;78.37
75130;HTU21D;63703;44.716;37.846;2022-12-18T17:10:56;8.67;78.07
75130;HTU21D;63703;44.716;37.846;2022-12-18T17:13:25;8.55;78.21